createdAt,value
2023-01-27T00:00:39.226Z,49.48
2023-01-27T00:03:06.593Z,49.60
2023-01-27T00:05:33.994Z,49.83
2023-01-27T00:08:01.058Z,49.23
2023-01-27T00:10:28.486Z,49.43
2023-01-27T00:13:13.434Z,49.75
2023-01-27T00:15:40.274Z,50.20
2023-01-27T00:18:07.687Z,50.28
2023-01-27T00:20:53.620Z,49.92
2023-01-27T00:23:43.975Z,49.67
2023-01-27T00:26:13.600Z,50.79
2023-01-27T00:28:43.770Z,50.48
2023-01-27T00:31:33.078Z,50.09
2023-01-27T00:34:09.043Z,49.95
2023-01-27T00:36:39.378Z,50.10
2023-01-27T00:39:07.443Z,49.88
2023-01-27T00:41:35.197Z,50.64
2023-01-27T00:44:02.449Z,50.77
2023-01-27T00:46:29.420Z,50.08
2023-01-27T00:48:56.369Z,50.82
2023-01-27T00:51:23.964Z,54.71
2023-01-27T00:53:50.853Z,52.96
2023-01-27T00:56:17.935Z,51.25
2023-01-27T00:58:44.860Z,51.00
2023-01-27T01:01:14.936Z,50.55
2023-01-27T01:03:42.792Z,50.83
2023-01-27T01:06:12.436Z,50.87
2023-01-27T01:08:39.384Z,50.83
2023-01-27T01:11:07.729Z,50.75
2023-01-27T01:13:35.130Z,50.83
2023-01-27T01:16:13.820Z,50.70
2023-01-27T01:18:42.916Z,51.15
2023-01-27T01:21:10.788Z,51.20
2023-01-27T01:23:42.881Z,50.71
2023-01-27T01:26:11.668Z,50.99
2023-01-27T01:28:39.242Z,51.21
2023-01-27T01:31:13.378Z,50.75
2023-01-27T01:33:40.408Z,50.39
2023-01-27T01:36:12.586Z,50.60
2023-01-27T01:38:39.663Z,50.75
2023-01-27T01:41:08.222Z,50.78
2023-01-27T01:43:35.261Z,50.62
2023-01-27T01:46:02.922Z,50.60
2023-01-27T01:48:32.443Z,50.54
2023-01-27T01:51:04.972Z,50.39
2023-01-27T01:53:38.040Z,50.94
2023-01-27T01:56:10.881Z,51.50
2023-01-27T01:58:39.686Z,51.22
2023-01-27T02:01:07.333Z,51.01
2023-01-27T02:03:37.195Z,50.97
2023-01-27T02:06:06.135Z,50.94
2023-01-27T02:08:40.161Z,50.94
2023-01-27T02:11:09.111Z,50.58
2023-01-27T02:13:39.373Z,51.04
2023-01-27T02:16:08.755Z,51.06
2023-01-27T02:18:35.770Z,51.30
2023-01-27T02:21:03.233Z,50.99
2023-01-27T02:24:00.883Z,51.16
2023-01-27T02:26:33.570Z,51.30
2023-01-27T02:29:05.646Z,51.25
2023-01-27T02:31:32.979Z,50.90
2023-01-27T02:34:19.330Z,51.10
2023-01-27T02:36:51.147Z,50.91
2023-01-27T02:39:22.278Z,51.02
2023-01-27T02:41:57.083Z,50.94
2023-01-27T02:44:23.894Z,51.55
2023-01-27T02:46:50.777Z,51.29
2023-01-27T02:49:17.814Z,51.02
2023-01-27T02:51:44.952Z,51.00
2023-01-27T02:54:11.760Z,51.70
2023-01-27T02:56:38.618Z,51.69
2023-01-27T02:59:08.009Z,52.09
2023-01-27T03:01:41.183Z,51.42
2023-01-27T03:04:09.295Z,51.26
2023-01-27T03:06:36.095Z,51.70
2023-01-27T03:09:04.336Z,50.58
2023-01-27T03:11:49.948Z,51.05
2023-01-27T03:14:18.303Z,50.94
2023-01-27T03:17:05.992Z,50.70
2023-01-27T03:19:33.116Z,51.00
2023-01-27T03:22:02.024Z,51.58
2023-01-27T03:24:30.885Z,51.26
2023-01-27T03:27:01.320Z,50.60
2023-01-27T03:29:57.973Z,51.93
2023-01-27T03:32:28.912Z,50.92
2023-01-27T03:35:48.630Z,51.19
2023-01-27T03:38:38.672Z,51.26
2023-01-27T03:41:24.074Z,51.67
2023-01-27T03:44:09.340Z,52.26
2023-01-27T03:46:36.178Z,51.88
2023-01-27T03:49:02.869Z,51.11
2023-01-27T03:51:29.710Z,52.08
2023-01-27T03:53:56.553Z,51.53
2023-01-27T03:56:23.468Z,51.20
2023-01-27T03:58:50.874Z,51.70
2023-01-27T04:01:20.401Z,51.65
2023-01-27T04:04:06.432Z,51.53
2023-01-27T04:07:14.031Z,51.81
2023-01-27T04:09:40.988Z,52.25
2023-01-27T04:12:07.800Z,53.29
2023-01-27T04:14:39.483Z,52.03
2023-01-27T04:17:14.952Z,51.51
2023-01-27T04:19:42.213Z,51.27
2023-01-27T04:22:11.608Z,50.43
2023-01-27T04:24:38.823Z,50.62
2023-01-27T04:27:08.271Z,51.29
2023-01-27T04:29:41.260Z,51.12
2023-01-27T04:32:10.539Z,50.35
2023-01-27T04:34:37.933Z,51.11
2023-01-27T04:37:07.643Z,50.67
2023-01-27T04:39:35.042Z,51.63
2023-01-27T04:42:02.311Z,51.47
2023-01-27T04:44:29.871Z,51.29
2023-01-27T04:46:56.706Z,51.40
2023-01-27T04:49:23.479Z,51.11
2023-01-27T04:51:50.320Z,52.50
2023-01-27T04:54:17.256Z,51.81
2023-01-27T04:57:01.489Z,51.64
2023-01-27T04:59:29.699Z,50.73
2023-01-27T05:01:56.535Z,51.05
2023-01-27T05:04:23.575Z,51.54
2023-01-27T05:06:50.283Z,50.79
2023-01-27T05:09:17.267Z,50.94
2023-01-27T05:11:43.958Z,52.02
2023-01-27T05:14:10.753Z,51.26
2023-01-27T05:16:38.755Z,50.76
2023-01-27T05:19:05.727Z,51.90
2023-01-27T05:21:32.674Z,52.60
2023-01-27T05:23:59.391Z,51.36
2023-01-27T05:26:27.833Z,51.86
2023-01-27T05:28:57.565Z,51.97
2023-01-27T05:31:27.113Z,51.99
2023-01-27T05:33:55.502Z,51.69
2023-01-27T05:36:24.300Z,51.62
2023-01-27T05:38:51.424Z,51.99
2023-01-27T05:41:19.916Z,52.78
2023-01-27T05:43:52.687Z,52.25
2023-01-27T05:46:25.551Z,52.64
2023-01-27T05:48:54.521Z,52.63
2023-01-27T05:51:24.144Z,51.62
2023-01-27T05:53:51.251Z,53.05
2023-01-27T05:56:19.414Z,52.10
2023-01-27T05:58:46.782Z,52.47
2023-01-27T06:01:17.062Z,54.13
2023-01-27T06:03:44.860Z,54.21
2023-01-27T06:06:12.939Z,53.66
2023-01-27T06:08:40.660Z,53.36
2023-01-27T06:11:07.853Z,52.60
2023-01-27T06:13:39.026Z,52.24
2023-01-27T06:16:11.668Z,52.52
2023-01-27T06:18:39.416Z,52.34
2023-01-27T06:21:08.804Z,52.60
2023-01-27T06:23:35.987Z,52.30
2023-01-27T06:26:06.850Z,53.11
2023-01-27T06:28:33.816Z,53.08
2023-01-27T06:31:12.648Z,53.08
2023-01-27T06:33:40.147Z,52.86
2023-01-27T06:36:14.295Z,52.55
2023-01-27T06:38:41.667Z,52.58
2023-01-27T06:41:08.433Z,52.49
2023-01-27T06:43:35.260Z,53.30
2023-01-27T06:46:05.404Z,54.27
2023-01-27T06:48:33.016Z,55.00
2023-01-27T06:51:00.014Z,53.38
2023-01-27T06:53:27.173Z,53.05
2023-01-27T06:56:01.335Z,52.99
2023-01-27T06:58:29.226Z,53.03
2023-01-27T07:00:57.088Z,52.27
2023-01-27T07:03:24.773Z,51.79
2023-01-27T07:05:52.653Z,51.54
2023-01-27T07:08:19.676Z,51.98
2023-01-27T07:10:46.368Z,51.59
2023-01-27T07:13:15.110Z,51.25
2023-01-27T07:15:42.265Z,50.68
2023-01-27T07:18:10.472Z,50.86
2023-01-27T07:20:37.760Z,51.83
2023-01-27T07:23:05.598Z,52.21
2023-01-27T07:25:34.345Z,51.71
2023-01-27T07:28:02.333Z,51.89
2023-01-27T07:30:29.962Z,51.65
2023-01-27T07:33:03.369Z,51.10
2023-01-27T07:35:30.249Z,51.03
2023-01-27T07:37:58.229Z,50.84
2023-01-27T07:40:25.226Z,50.57
2023-01-27T07:42:52.000Z,50.52
2023-01-27T07:45:19.904Z,50.61
2023-01-27T07:47:46.682Z,50.48
2023-01-27T07:50:13.774Z,50.32
2023-01-27T07:52:40.739Z,50.48
2023-01-27T07:55:08.343Z,50.17
2023-01-27T07:57:35.293Z,50.53
2023-01-27T08:00:02.432Z,50.82
2023-01-27T08:02:39.078Z,50.45
2023-01-27T08:05:06.145Z,50.21
2023-01-27T08:07:33.029Z,50.54
2023-01-27T08:09:59.961Z,49.63
2023-01-27T08:12:26.656Z,49.77
2023-01-27T08:14:53.509Z,49.69
2023-01-27T08:17:20.300Z,49.27
2023-01-27T08:19:50.645Z,49.63
2023-01-27T08:22:21.217Z,49.44
2023-01-27T08:24:51.483Z,50.00
2023-01-27T08:27:18.349Z,48.76
2023-01-27T08:29:45.163Z,49.25
2023-01-27T08:32:14.168Z,49.95
2023-01-27T08:34:42.316Z,50.04
2023-01-27T08:37:09.181Z,50.04
2023-01-27T08:39:36.037Z,49.25
2023-01-27T08:42:03.819Z,49.47
2023-01-27T08:44:31.566Z,49.50
2023-01-27T08:46:58.362Z,50.25
2023-01-27T08:49:25.187Z,50.33
2023-01-27T08:51:51.929Z,50.55
2023-01-27T08:54:18.994Z,50.00
2023-01-27T08:56:45.752Z,48.67
2023-01-27T08:59:12.551Z,49.44
2023-01-27T09:01:41.639Z,49.26
2023-01-27T09:04:08.999Z,48.96
2023-01-27T09:06:35.761Z,49.53
2023-01-27T09:09:11.188Z,49.48
2023-01-27T09:11:41.603Z,49.07
2023-01-27T09:14:08.414Z,49.75
2023-01-27T09:16:35.517Z,49.22
2023-01-27T09:19:02.405Z,50.12
2023-01-27T09:21:29.688Z,49.79
2023-01-27T09:23:56.440Z,50.24
2023-01-27T09:26:23.533Z,50.25
2023-01-27T09:28:50.354Z,50.61
2023-01-27T09:31:17.194Z,50.63
2023-01-27T09:33:43.994Z,52.18
2023-01-27T09:36:19.124Z,51.80
2023-01-27T09:38:54.620Z,51.11
2023-01-27T09:41:43.158Z,51.34
2023-01-27T09:44:35.910Z,52.63
2023-01-27T09:47:27.315Z,51.95
2023-01-27T09:50:11.086Z,52.41
2023-01-27T09:52:58.256Z,53.08
2023-01-27T09:56:04.757Z,54.64
2023-01-27T09:58:41.523Z,54.28
2023-01-27T10:01:28.510Z,54.15
2023-01-27T10:04:26.265Z,52.17
2023-01-27T10:07:08.029Z,52.31
2023-01-27T10:10:16.115Z,53.05
2023-01-27T10:13:11.639Z,52.66
2023-01-27T10:15:39.713Z,51.31
2023-01-27T10:18:24.845Z,52.51
2023-01-27T10:21:16.911Z,52.73
2023-01-27T10:23:55.800Z,52.03
2023-01-27T10:26:35.917Z,51.70
2023-01-27T10:29:18.877Z,51.60
2023-01-27T10:31:52.615Z,50.49
2023-01-27T10:34:22.243Z,50.95
2023-01-27T10:37:17.400Z,50.09
2023-01-27T10:39:56.858Z,49.74
2023-01-27T10:42:38.803Z,51.10
2023-01-27T10:45:24.417Z,51.01
2023-01-27T10:48:03.391Z,50.75
2023-01-27T10:50:43.529Z,51.00
2023-01-27T10:53:20.173Z,50.29
2023-01-27T10:55:56.987Z,50.58
2023-01-27T10:58:29.683Z,50.13
2023-01-27T11:01:19.827Z,49.82
2023-01-27T11:04:03.877Z,50.75
2023-01-27T11:06:40.268Z,51.14
2023-01-27T11:09:25.481Z,51.60
2023-01-27T11:11:54.019Z,53.09
2023-01-27T11:14:34.268Z,52.83
2023-01-27T11:17:37.144Z,52.97
2023-01-27T11:20:22.113Z,52.18
2023-01-27T11:22:57.011Z,51.70
2023-01-27T11:25:26.783Z,52.29
2023-01-27T11:28:05.544Z,52.49
2023-01-27T11:30:42.735Z,52.22
2023-01-27T11:33:23.193Z,53.46
2023-01-27T11:35:51.326Z,53.20
2023-01-27T11:38:21.837Z,53.85
2023-01-27T11:40:51.263Z,53.65
2023-01-27T11:43:21.285Z,53.33
2023-01-27T11:45:50.155Z,52.61
2023-01-27T11:48:21.722Z,53.55
2023-01-27T11:50:50.155Z,53.97
2023-01-27T11:53:16.860Z,53.20
2023-01-27T11:55:50.041Z,52.14
2023-01-27T11:58:30.644Z,52.83
2023-01-27T12:01:05.555Z,52.81
2023-01-27T12:03:32.341Z,52.86
2023-01-27T12:06:09.392Z,51.80
2023-01-27T12:08:45.215Z,50.89
2023-01-27T12:11:22.435Z,50.62
2023-01-27T12:13:54.863Z,50.84
2023-01-27T12:16:47.613Z,50.98
2023-01-27T12:19:34.730Z,51.68
2023-01-27T12:22:07.770Z,51.60
2023-01-27T12:24:38.833Z,51.98
2023-01-27T12:27:07.784Z,51.90
2023-01-27T12:29:42.190Z,51.96
2023-01-27T12:32:20.556Z,51.60
2023-01-27T12:34:52.216Z,52.62
2023-01-27T12:37:27.466Z,51.82
2023-01-27T12:40:03.632Z,51.22
2023-01-27T12:43:02.728Z,51.26
2023-01-27T12:45:38.397Z,51.86
2023-01-27T12:48:14.229Z,51.53
2023-01-27T12:50:52.929Z,51.96
2023-01-27T12:53:27.807Z,51.90
2023-01-27T12:56:01.502Z,52.44
2023-01-27T12:58:40.421Z,52.03
2023-01-27T13:01:26.905Z,51.14
2023-01-27T13:04:16.589Z,52.50
2023-01-27T13:06:51.367Z,52.10
2023-01-27T13:09:33.937Z,52.15
2023-01-27T13:12:05.427Z,52.66
2023-01-27T13:14:39.767Z,52.23
2023-01-27T13:17:30.334Z,52.62
2023-01-27T13:20:01.885Z,51.90
2023-01-27T13:22:33.292Z,52.52
2023-01-27T13:25:03.545Z,52.45
2023-01-27T13:27:39.850Z,51.92
2023-01-27T13:30:41.162Z,51.94
2023-01-27T13:33:30.868Z,51.52
2023-01-27T13:36:40.410Z,53.01
2023-01-27T13:39:20.149Z,52.41
2023-01-27T13:42:02.438Z,51.64
2023-01-27T13:44:41.682Z,52.06
2023-01-27T13:47:18.931Z,53.38
2023-01-27T13:50:03.166Z,53.69
2023-01-27T13:52:30.026Z,54.57
2023-01-27T13:54:57.813Z,54.65
2023-01-27T13:57:54.422Z,54.10
2023-01-27T14:00:27.485Z,54.56
2023-01-27T14:03:15.805Z,53.04
2023-01-27T14:05:54.790Z,52.93
2023-01-27T14:08:45.360Z,52.68
2023-01-27T14:11:27.361Z,52.43
2023-01-27T14:14:12.665Z,53.32
2023-01-27T14:17:26.631Z,54.58
2023-01-27T14:20:20.283Z,53.41
2023-01-27T14:23:00.327Z,53.32
2023-01-27T14:25:44.656Z,52.50
2023-01-27T14:28:28.708Z,52.44
2023-01-27T14:31:01.379Z,52.38
2023-01-27T14:34:10.040Z,52.19
2023-01-27T14:36:47.170Z,51.82
2023-01-27T14:39:46.092Z,51.61
2023-01-27T14:42:28.737Z,51.21
2023-01-27T14:45:13.454Z,51.97
2023-01-27T14:47:53.182Z,52.50
2023-01-27T14:50:22.790Z,52.38
2023-01-27T14:53:11.478Z,52.45
2023-01-27T14:56:02.456Z,52.08
2023-01-27T14:59:02.202Z,52.83
2023-01-27T15:01:39.588Z,52.60
2023-01-27T15:04:21.433Z,52.03
2023-01-27T15:06:56.757Z,52.87
2023-01-27T15:09:34.162Z,53.52
2023-01-27T15:12:30.459Z,53.42
2023-01-27T15:15:30.906Z,52.57
2023-01-27T15:18:45.697Z,52.23
2023-01-27T15:21:21.385Z,52.57
2023-01-27T15:23:55.726Z,53.11
2023-01-27T15:26:27.084Z,52.91
2023-01-27T15:28:54.954Z,53.04
2023-01-27T15:31:25.781Z,53.18
2023-01-27T15:34:04.446Z,53.22
2023-01-27T15:36:32.867Z,53.27
2023-01-27T15:39:00.812Z,53.08
2023-01-27T15:41:28.187Z,52.69
2023-01-27T15:44:16.252Z,53.68
2023-01-27T15:46:50.911Z,53.11
2023-01-27T15:49:30.610Z,53.83
2023-01-27T15:52:10.915Z,54.25
2023-01-27T15:54:41.012Z,54.10
2023-01-27T15:57:25.229Z,52.83
2023-01-27T15:59:59.055Z,53.20
2023-01-27T16:02:32.072Z,53.16
2023-01-27T16:05:17.619Z,53.27
2023-01-27T16:07:50.441Z,53.71
2023-01-27T16:10:22.286Z,53.25
2023-01-27T16:12:49.634Z,52.53
2023-01-27T16:15:19.419Z,51.97
2023-01-27T16:18:25.699Z,52.97
2023-01-27T16:21:06.841Z,52.46
2023-01-27T16:23:43.001Z,53.74
2023-01-27T16:26:25.285Z,54.50
2023-01-27T16:28:57.345Z,54.06
2023-01-27T16:31:29.501Z,54.39
2023-01-27T16:34:00.343Z,54.08
2023-01-27T16:36:30.085Z,53.95
2023-01-27T16:39:03.162Z,55.41
2023-01-27T16:41:36.219Z,53.97
2023-01-27T16:44:07.824Z,53.65
2023-01-27T16:46:39.777Z,53.85
2023-01-27T16:49:21.965Z,52.88
2023-01-27T16:51:56.833Z,52.19
2023-01-27T16:54:34.521Z,52.06
2023-01-27T16:57:03.894Z,53.13
2023-01-27T16:59:37.296Z,52.88
2023-01-27T17:02:12.795Z,51.64
2023-01-27T17:04:39.988Z,51.62
2023-01-27T17:07:12.054Z,52.15
2023-01-27T17:09:50.119Z,52.24
2023-01-27T17:12:28.345Z,51.24
2023-01-27T17:14:55.794Z,51.31
2023-01-27T17:17:25.051Z,51.78
2023-01-27T17:19:56.025Z,51.47
2023-01-27T17:22:26.193Z,51.33
2023-01-27T17:24:55.296Z,51.85
2023-01-27T17:27:34.244Z,52.16
2023-01-27T17:30:06.544Z,51.86
2023-01-27T17:32:39.881Z,51.53
2023-01-27T17:35:19.295Z,51.43
2023-01-27T17:37:46.060Z,52.27
2023-01-27T17:40:18.476Z,52.21
2023-01-27T17:42:45.602Z,51.79
2023-01-27T17:45:30.072Z,51.51
2023-01-27T17:48:01.300Z,51.33
2023-01-27T17:50:36.331Z,49.84
2023-01-27T17:53:06.170Z,50.39
2023-01-27T17:55:33.173Z,51.05
2023-01-27T17:58:06.350Z,50.75
2023-01-27T18:00:41.475Z,51.31
2023-01-27T18:03:20.487Z,51.25
2023-01-27T18:05:50.116Z,50.01
2023-01-27T18:08:21.486Z,51.89
2023-01-27T18:10:48.450Z,51.59
2023-01-27T18:13:18.279Z,51.31
2023-01-27T18:15:58.105Z,51.64
2023-01-27T18:18:28.078Z,52.86
2023-01-27T18:21:04.024Z,52.19
2023-01-27T18:23:34.378Z,51.54
2023-01-27T18:26:05.942Z,52.54
2023-01-27T18:28:36.101Z,52.01
2023-01-27T18:31:03.324Z,51.73
2023-01-27T18:33:33.892Z,52.28
2023-01-27T18:36:00.917Z,52.07
2023-01-27T18:38:32.673Z,52.54
2023-01-27T18:41:19.054Z,51.65
2023-01-27T18:43:48.197Z,52.00
2023-01-27T18:46:15.164Z,52.30
2023-01-27T18:48:42.316Z,52.51
2023-01-27T18:51:14.368Z,52.24
2023-01-27T18:53:41.944Z,52.10
2023-01-27T18:56:09.256Z,52.01
2023-01-27T18:58:36.524Z,51.89
2023-01-27T19:01:05.664Z,51.50
2023-01-27T19:03:34.788Z,53.07
2023-01-27T19:06:01.644Z,52.70
2023-01-27T19:08:28.746Z,52.16
2023-01-27T19:10:55.602Z,51.39
2023-01-27T19:13:23.591Z,51.33
2023-01-27T19:15:53.474Z,52.14
2023-01-27T19:18:38.903Z,51.44
2023-01-27T19:21:06.200Z,52.88
2023-01-27T19:23:33.034Z,52.58
2023-01-27T19:26:02.228Z,52.75
2023-01-27T19:28:31.540Z,53.20
2023-01-27T19:30:59.196Z,52.79
2023-01-27T19:33:27.655Z,50.85
2023-01-27T19:36:00.712Z,50.71
2023-01-27T19:38:29.459Z,49.68
2023-01-27T19:40:56.149Z,51.04
2023-01-27T19:43:24.241Z,52.04
2023-01-27T19:45:53.215Z,51.40
2023-01-27T19:48:24.053Z,51.96
2023-01-27T19:50:52.367Z,51.34
2023-01-27T19:53:20.381Z,51.37
2023-01-27T19:55:47.871Z,52.03
2023-01-27T19:58:25.952Z,51.82
2023-01-27T20:00:54.591Z,51.54
2023-01-27T20:03:23.092Z,52.01
2023-01-27T20:05:50.145Z,52.75
2023-01-27T20:08:19.543Z,53.65
2023-01-27T20:10:46.871Z,52.88
2023-01-27T20:13:16.554Z,53.29
2023-01-27T20:15:45.716Z,52.76
2023-01-27T20:18:17.354Z,53.89
2023-01-27T20:20:45.112Z,54.42
2023-01-27T20:23:13.673Z,53.64
2023-01-27T20:25:40.517Z,54.51
2023-01-27T20:28:08.216Z,54.72
2023-01-27T20:30:35.230Z,55.63
2023-01-27T20:33:03.817Z,55.09
2023-01-27T20:35:31.201Z,55.43
2023-01-27T20:37:57.989Z,56.06
2023-01-27T20:40:27.830Z,54.73
2023-01-27T20:42:54.710Z,55.13
2023-01-27T20:45:22.501Z,55.76
2023-01-27T20:47:54.089Z,54.76
2023-01-27T20:50:23.380Z,55.29
2023-01-27T20:52:51.456Z,55.26
2023-01-27T20:55:21.686Z,54.54
2023-01-27T20:57:49.232Z,54.33
2023-01-27T21:00:20.992Z,54.42
2023-01-27T21:02:49.078Z,55.32
2023-01-27T21:05:16.280Z,53.38
2023-01-27T21:07:43.317Z,53.02
2023-01-27T21:10:10.890Z,52.95
2023-01-27T21:12:37.854Z,52.30
2023-01-27T21:15:09.715Z,53.34
2023-01-27T21:17:37.405Z,52.57
2023-01-27T21:20:04.540Z,52.23
2023-01-27T21:22:31.478Z,52.52
2023-01-27T21:24:58.261Z,51.87
2023-01-27T21:27:26.106Z,52.09
2023-01-27T21:29:53.012Z,51.68
2023-01-27T21:32:20.003Z,51.41
2023-01-27T21:34:46.724Z,51.84
2023-01-27T21:37:13.637Z,51.31
2023-01-27T21:39:41.362Z,50.63
2023-01-27T21:42:13.459Z,51.95
2023-01-27T21:44:58.595Z,51.42
2023-01-27T21:47:25.586Z,51.38
2023-01-27T21:50:01.189Z,52.27
2023-01-27T21:52:39.066Z,51.22
2023-01-27T21:55:08.366Z,51.06
2023-01-27T21:57:35.537Z,50.79
2023-01-27T22:00:03.495Z,51.70
2023-01-27T22:02:39.679Z,50.99
2023-01-27T22:05:07.365Z,51.57
2023-01-27T22:07:38.435Z,51.46
2023-01-27T22:10:13.350Z,51.50
2023-01-27T22:12:40.272Z,51.60
2023-01-27T22:15:09.755Z,51.62
2023-01-27T22:17:36.610Z,51.81
2023-01-27T22:20:04.703Z,51.74
2023-01-27T22:22:31.652Z,51.99
2023-01-27T22:24:58.496Z,51.25
2023-01-27T22:27:25.311Z,51.27
2023-01-27T22:29:52.134Z,50.53
2023-01-27T22:32:18.922Z,51.26
2023-01-27T22:34:47.859Z,51.17
2023-01-27T22:37:14.708Z,50.32
2023-01-27T22:39:42.385Z,50.84
2023-01-27T22:42:10.009Z,49.97
2023-01-27T22:44:36.797Z,51.01
2023-01-27T22:47:04.483Z,51.67
2023-01-27T22:49:31.234Z,50.67
2023-01-27T22:51:57.965Z,51.79
2023-01-27T22:54:24.728Z,51.32
2023-01-27T22:56:51.434Z,51.83
2023-01-27T22:59:18.328Z,50.97
2023-01-27T23:01:45.245Z,51.23
2023-01-27T23:04:12.557Z,51.42
2023-01-27T23:06:39.247Z,51.31
2023-01-27T23:09:06.255Z,50.73
2023-01-27T23:11:33.136Z,51.86
2023-01-27T23:14:01.309Z,52.43
2023-01-27T23:16:28.208Z,52.51
2023-01-27T23:18:55.011Z,53.06
2023-01-27T23:21:21.738Z,52.53
2023-01-27T23:23:51.106Z,52.89
2023-01-27T23:26:17.951Z,52.93
2023-01-27T23:28:44.838Z,54.04
2023-01-27T23:31:13.212Z,53.35
2023-01-27T23:33:41.860Z,52.74
2023-01-27T23:36:10.324Z,51.98
2023-01-27T23:38:38.105Z,53.13
2023-01-27T23:41:18.496Z,53.33
2023-01-27T23:43:51.382Z,54.23
2023-01-27T23:46:19.524Z,54.16
2023-01-27T23:48:53.805Z,53.59
2023-01-27T23:51:22.397Z,54.14
2023-01-27T23:53:49.603Z,54.42
2023-01-27T23:56:19.227Z,54.27
2023-01-27T23:58:46.646Z,54.58
